createdAt,value
2024-05-09T00:00:00.573Z,1013.0
2024-05-09T00:15:00.602Z,1012.8
2024-05-09T00:30:00.511Z,1012.5
2024-05-09T00:45:00.755Z,1012.4
2024-05-09T01:00:00.563Z,1012.6
2024-05-09T01:15:00.610Z,1012.6
2024-05-09T01:30:00.623Z,1012.6
2024-05-09T01:45:00.678Z,1012.6
2024-05-09T02:00:00.619Z,1012.8
2024-05-09T02:15:00.639Z,1012.8
2024-05-09T02:30:00.599Z,1013.0
2024-05-09T02:45:00.547Z,1012.7
2024-05-09T03:00:00.699Z,1012.8
2024-05-09T03:15:00.657Z,1013.0
2024-05-09T03:30:00.823Z,1012.9
2024-05-09T04:00:00.732Z,1013.0
2024-05-09T04:15:00.885Z,1013.0
2024-05-09T04:30:00.813Z,1012.8
2024-05-09T04:45:00.712Z,1013.0
2024-05-09T05:00:00.736Z,1012.9
2024-05-09T05:15:00.759Z,1013.3
2024-05-09T05:30:00.791Z,1013.1
2024-05-09T05:45:00.782Z,1013.3
2024-05-09T06:00:00.759Z,1013.0
2024-05-09T06:15:00.771Z,1013.5
2024-05-09T06:30:00.747Z,1013.4
2024-05-09T06:45:00.796Z,1013.6
2024-05-09T07:00:01.426Z,1013.9
2024-05-09T07:15:00.741Z,1013.6
2024-05-09T07:30:00.767Z,1013.7
2024-05-09T08:00:00.714Z,1013.8
2024-05-09T08:15:00.782Z,1013.6
2024-05-09T08:30:00.924Z,1013.6
2024-05-09T08:45:00.798Z,1013.7
2024-05-09T09:00:00.809Z,1013.6
2024-05-09T09:15:00.768Z,1013.5
2024-05-09T09:30:00.929Z,1013.6
2024-05-09T09:45:06.203Z,1013.5
2024-05-09T10:00:00.742Z,1013.5
2024-05-09T10:15:00.746Z,1013.3
2024-05-09T10:30:00.832Z,1013.4
2024-05-09T10:45:00.744Z,1013.1
2024-05-09T11:00:00.773Z,1013.0
2024-05-09T11:15:00.765Z,1012.9
2024-05-09T11:30:00.674Z,1012.9
2024-05-09T11:45:00.724Z,1012.5
2024-05-09T12:00:00.730Z,1012.8
2024-05-09T12:15:00.752Z,1012.6
2024-05-09T12:30:00.767Z,1012.4
2024-05-09T12:45:00.765Z,1012.5
2024-05-09T13:15:00.677Z,1012.5
2024-05-09T13:30:00.783Z,1012.0
2024-05-09T13:45:00.664Z,1012.0
2024-05-09T14:00:00.898Z,1012.1
2024-05-09T14:15:00.774Z,1012.0
2024-05-09T14:30:00.760Z,1011.9
2024-05-09T14:45:00.658Z,1011.7
2024-05-09T15:00:00.711Z,1011.9
2024-05-09T15:15:00.796Z,1011.8
2024-05-09T15:30:00.716Z,1011.9
2024-05-09T15:45:00.706Z,1011.8
2024-05-09T16:00:00.856Z,1011.8
2024-05-09T16:15:00.617Z,1011.7
2024-05-09T16:30:00.668Z,1011.6
2024-05-09T16:45:00.831Z,1011.7
2024-05-09T17:30:00.572Z,1012.2
2024-05-09T17:45:01.163Z,1012.1
2024-05-09T18:00:00.721Z,1012.1
2024-05-09T18:15:00.573Z,1012.2
2024-05-09T18:30:00.669Z,1012.4
2024-05-09T18:45:00.909Z,1012.4
2024-05-09T19:00:00.677Z,1012.6
2024-05-09T19:15:00.899Z,1012.9
2024-05-09T19:30:00.663Z,1013.0
2024-05-09T19:45:00.585Z,1013.2
2024-05-09T20:00:00.713Z,1013.3
2024-05-09T20:15:00.713Z,1013.4
2024-05-09T20:30:00.722Z,1013.4
2024-05-09T20:45:00.653Z,1013.5
2024-05-09T21:00:00.657Z,1013.7
2024-05-09T21:15:00.563Z,1013.5
2024-05-09T21:30:00.586Z,1013.5
2024-05-09T21:45:00.685Z,1013.8
2024-05-09T22:00:00.581Z,1013.7
2024-05-09T22:15:00.585Z,1013.7
2024-05-09T22:30:00.637Z,1014.0
2024-05-09T22:45:00.665Z,1013.9
2024-05-09T23:00:00.720Z,1013.9
2024-05-09T23:15:00.653Z,1013.8
2024-05-09T23:30:00.591Z,1013.8
2024-05-09T23:45:00.637Z,1013.6
